sensor_id;sensor_type;location;lat;lon;timestamp;P1;durP1;ratioP1;P2;durP2;ratioP2
50932;SDS011;36921;49.006;9.292;2023-02-25T00:00:05;9.20;;;3.80;;
50932;SDS011;36921;49.006;9.292;2023-02-25T00:02:42;7.57;;;3.90;;
50932;SDS011;36921;49.006;9.292;2023-02-25T00:05:10;7.68;;;3.72;;
50932;SDS011;36921;49.006;9.292;2023-02-25T00:07:36;8.18;;;3.38;;
50932;SDS011;36921;49.006;9.292;2023-02-25T00:10:02;5.95;;;3.63;;
50932;SDS011;36921;49.006;9.292;2023-02-25T00:12:28;13.25;;;3.67;;
50932;SDS011;36921;49.006;9.292;2023-02-25T00:14:53;12.68;;;3.78;;
50932;SDS011;36921;49.006;9.292;2023-02-25T00:17:19;8.38;;;4.18;;
50932;SDS011;36921;49.006;9.292;2023-02-25T00:19:44;8.70;;;4.03;;
50932;SDS011;36921;49.006;9.292;2023-02-25T00:22:09;9.63;;;3.50;;
50932;SDS011;36921;49.006;9.292;2023-02-25T00:24:35;6.13;;;3.42;;
50932;SDS011;36921;49.006;9.292;2023-02-25T00:27:00;9.20;;;3.55;;
50932;SDS011;36921;49.006;9.292;2023-02-25T00:29:26;6.28;;;3.38;;
50932;SDS011;36921;49.006;9.292;2023-02-25T00:31:51;6.70;;;3.80;;
50932;SDS011;36921;49.006;9.292;2023-02-25T00:34:16;8.82;;;3.80;;
50932;SDS011;36921;49.006;9.292;2023-02-25T00:36:41;5.78;;;2.97;;
50932;SDS011;36921;49.006;9.292;2023-02-25T00:39:07;6.85;;;3.50;;
50932;SDS011;36921;49.006;9.292;2023-02-25T00:41:33;10.93;;;4.45;;
50932;SDS011;36921;49.006;9.292;2023-02-25T00:43:59;7.95;;;3.63;;
50932;SDS011;36921;49.006;9.292;2023-02-25T00:46:26;6.88;;;3.45;;
50932;SDS011;36921;49.006;9.292;2023-02-25T00:48:53;7.68;;;3.85;;
50932;SDS011;36921;49.006;9.292;2023-02-25T00:51:20;10.60;;;3.28;;
50932;SDS011;36921;49.006;9.292;2023-02-25T00:53:47;12.48;;;3.55;;
50932;SDS011;36921;49.006;9.292;2023-02-25T00:56:13;8.35;;;3.53;;
50932;SDS011;36921;49.006;9.292;2023-02-25T00:58:40;8.20;;;3.40;;
50932;SDS011;36921;49.006;9.292;2023-02-25T01:03:46;5.78;;;3.15;;
50932;SDS011;36921;49.006;9.292;2023-02-25T01:06:11;6.30;;;3.60;;
50932;SDS011;36921;49.006;9.292;2023-02-25T01:08:37;7.70;;;3.58;;
50932;SDS011;36921;49.006;9.292;2023-02-25T01:11:12;10.07;;;3.70;;
50932;SDS011;36921;49.006;9.292;2023-02-25T01:13:41;5.60;;;3.20;;
50932;SDS011;36921;49.006;9.292;2023-02-25T01:16:11;7.32;;;3.25;;
50932;SDS011;36921;49.006;9.292;2023-02-25T01:18:38;5.57;;;3.38;;
50932;SDS011;36921;49.006;9.292;2023-02-25T01:21:04;5.40;;;3.58;;
50932;SDS011;36921;49.006;9.292;2023-02-25T01:23:30;8.52;;;3.38;;
50932;SDS011;36921;49.006;9.292;2023-02-25T01:25:55;5.05;;;3.13;;
50932;SDS011;36921;49.006;9.292;2023-02-25T01:28:20;6.03;;;3.40;;
50932;SDS011;36921;49.006;9.292;2023-02-25T01:30:45;11.98;;;3.92;;
50932;SDS011;36921;49.006;9.292;2023-02-25T01:33:11;7.28;;;3.50;;
50932;SDS011;36921;49.006;9.292;2023-02-25T01:35:36;6.15;;;3.20;;
50932;SDS011;36921;49.006;9.292;2023-02-25T01:38:01;6.07;;;3.28;;
50932;SDS011;36921;49.006;9.292;2023-02-25T01:40:27;8.95;;;3.28;;
50932;SDS011;36921;49.006;9.292;2023-02-25T01:42:52;7.97;;;2.65;;
50932;SDS011;36921;49.006;9.292;2023-02-25T01:47:50;6.30;;;2.30;;
50932;SDS011;36921;49.006;9.292;2023-02-25T01:50:19;6.55;;;2.88;;
50932;SDS011;36921;49.006;9.292;2023-02-25T01:52:47;5.47;;;2.47;;
50932;SDS011;36921;49.006;9.292;2023-02-25T01:55:13;4.72;;;2.40;;
50932;SDS011;36921;49.006;9.292;2023-02-25T01:57:39;7.03;;;2.60;;
50932;SDS011;36921;49.006;9.292;2023-02-25T02:00:05;4.88;;;2.05;;
50932;SDS011;36921;49.006;9.292;2023-02-25T02:02:36;4.15;;;2.20;;
50932;SDS011;36921;49.006;9.292;2023-02-25T02:05:02;5.80;;;2.50;;
50932;SDS011;36921;49.006;9.292;2023-02-25T02:07:29;5.93;;;2.28;;
50932;SDS011;36921;49.006;9.292;2023-02-25T02:09:55;4.82;;;2.50;;
50932;SDS011;36921;49.006;9.292;2023-02-25T02:12:21;6.57;;;2.38;;
50932;SDS011;36921;49.006;9.292;2023-02-25T02:14:48;10.10;;;2.50;;
50932;SDS011;36921;49.006;9.292;2023-02-25T02:17:34;5.20;;;2.67;;
50932;SDS011;36921;49.006;9.292;2023-02-25T02:20:14;3.65;;;2.08;;
50932;SDS011;36921;49.006;9.292;2023-02-25T02:28:41;5.95;;;2.63;;
50932;SDS011;36921;49.006;9.292;2023-02-25T02:36:48;5.50;;;1.85;;
50932;SDS011;36921;49.006;9.292;2023-02-25T02:39:40;4.20;;;1.60;;
50932;SDS011;36921;49.006;9.292;2023-02-25T02:42:30;4.53;;;2.00;;
50932;SDS011;36921;49.006;9.292;2023-02-25T02:45:16;8.55;;;1.85;;
50932;SDS011;36921;49.006;9.292;2023-02-25T02:48:07;4.93;;;1.92;;
50932;SDS011;36921;49.006;9.292;2023-02-25T02:50:38;5.88;;;1.65;;
50932;SDS011;36921;49.006;9.292;2023-02-25T02:53:09;7.32;;;1.98;;
50932;SDS011;36921;49.006;9.292;2023-02-25T02:55:39;5.60;;;1.80;;
50932;SDS011;36921;49.006;9.292;2023-02-25T02:58:10;4.13;;;1.80;;
50932;SDS011;36921;49.006;9.292;2023-02-25T03:00:41;7.90;;;1.85;;
50932;SDS011;36921;49.006;9.292;2023-02-25T03:03:30;5.70;;;1.73;;
50932;SDS011;36921;49.006;9.292;2023-02-25T03:06:00;6.85;;;1.65;;
50932;SDS011;36921;49.006;9.292;2023-02-25T03:08:28;6.72;;;1.73;;
50932;SDS011;36921;49.006;9.292;2023-02-25T03:10:57;8.02;;;2.00;;
50932;SDS011;36921;49.006;9.292;2023-02-25T03:13:22;8.50;;;1.80;;
50932;SDS011;36921;49.006;9.292;2023-02-25T03:15:48;4.82;;;2.00;;
50932;SDS011;36921;49.006;9.292;2023-02-25T03:18:21;8.48;;;1.98;;
50932;SDS011;36921;49.006;9.292;2023-02-25T03:20:49;8.50;;;2.70;;
50932;SDS011;36921;49.006;9.292;2023-02-25T03:23:20;9.15;;;1.90;;
50932;SDS011;36921;49.006;9.292;2023-02-25T03:25:59;10.50;;;2.63;;
50932;SDS011;36921;49.006;9.292;2023-02-25T03:28:44;4.10;;;2.05;;
50932;SDS011;36921;49.006;9.292;2023-02-25T03:31:30;6.97;;;1.90;;
50932;SDS011;36921;49.006;9.292;2023-02-25T03:34:07;10.00;;;2.35;;
50932;SDS011;36921;49.006;9.292;2023-02-25T03:36:40;6.20;;;1.95;;
50932;SDS011;36921;49.006;9.292;2023-02-25T03:39:10;5.72;;;1.83;;
50932;SDS011;36921;49.006;9.292;2023-02-25T03:41:39;4.70;;;2.10;;
50932;SDS011;36921;49.006;9.292;2023-02-25T03:44:11;6.72;;;2.05;;
50932;SDS011;36921;49.006;9.292;2023-02-25T03:46:39;6.03;;;2.40;;
50932;SDS011;36921;49.006;9.292;2023-02-25T03:49:09;7.47;;;2.28;;
50932;SDS011;36921;49.006;9.292;2023-02-25T03:51:40;5.90;;;2.22;;
50932;SDS011;36921;49.006;9.292;2023-02-25T03:54:09;13.88;;;2.45;;
50932;SDS011;36921;49.006;9.292;2023-02-25T03:56:45;8.50;;;2.42;;
50932;SDS011;36921;49.006;9.292;2023-02-25T03:59:12;10.30;;;2.80;;
50932;SDS011;36921;49.006;9.292;2023-02-25T04:01:38;10.80;;;2.58;;
50932;SDS011;36921;49.006;9.292;2023-02-25T04:04:06;9.65;;;2.10;;
50932;SDS011;36921;49.006;9.292;2023-02-25T04:06:32;7.50;;;2.67;;
50932;SDS011;36921;49.006;9.292;2023-02-25T04:08:57;5.88;;;2.35;;
50932;SDS011;36921;49.006;9.292;2023-02-25T04:11:23;9.43;;;2.58;;
50932;SDS011;36921;49.006;9.292;2023-02-25T04:13:48;8.18;;;2.45;;
50932;SDS011;36921;49.006;9.292;2023-02-25T04:16:13;6.75;;;2.45;;
50932;SDS011;36921;49.006;9.292;2023-02-25T04:18:39;9.10;;;2.78;;
50932;SDS011;36921;49.006;9.292;2023-02-25T04:21:05;4.13;;;2.10;;
50932;SDS011;36921;49.006;9.292;2023-02-25T04:23:31;6.78;;;2.25;;
50932;SDS011;36921;49.006;9.292;2023-02-25T04:25:57;9.50;;;2.55;;
50932;SDS011;36921;49.006;9.292;2023-02-25T04:28:22;5.65;;;2.47;;
50932;SDS011;36921;49.006;9.292;2023-02-25T04:30:47;7.00;;;2.22;;
50932;SDS011;36921;49.006;9.292;2023-02-25T04:33:12;6.65;;;2.05;;
50932;SDS011;36921;49.006;9.292;2023-02-25T04:35:38;5.10;;;1.83;;
50932;SDS011;36921;49.006;9.292;2023-02-25T04:38:03;8.77;;;2.00;;
50932;SDS011;36921;49.006;9.292;2023-02-25T04:40:28;6.55;;;1.80;;
50932;SDS011;36921;49.006;9.292;2023-02-25T04:42:54;4.72;;;1.50;;
50932;SDS011;36921;49.006;9.292;2023-02-25T04:45:19;5.82;;;1.67;;
50932;SDS011;36921;49.006;9.292;2023-02-25T04:47:49;4.82;;;1.55;;
50932;SDS011;36921;49.006;9.292;2023-02-25T04:50:19;3.65;;;1.52;;
50932;SDS011;36921;49.006;9.292;2023-02-25T04:52:45;2.67;;;1.23;;
50932;SDS011;36921;49.006;9.292;2023-02-25T04:55:10;6.75;;;1.70;;
50932;SDS011;36921;49.006;9.292;2023-02-25T04:57:36;6.57;;;1.60;;
50932;SDS011;36921;49.006;9.292;2023-02-25T05:00:07;3.28;;;1.13;;
50932;SDS011;36921;49.006;9.292;2023-02-25T05:02:40;4.15;;;1.58;;
50932;SDS011;36921;49.006;9.292;2023-02-25T05:05:05;3.58;;;1.00;;
50932;SDS011;36921;49.006;9.292;2023-02-25T05:07:31;7.22;;;1.25;;
50932;SDS011;36921;49.006;9.292;2023-02-25T05:09:56;4.60;;;1.10;;
50932;SDS011;36921;49.006;9.292;2023-02-25T05:12:22;3.47;;;1.05;;
50932;SDS011;36921;49.006;9.292;2023-02-25T05:14:47;2.45;;;1.27;;
50932;SDS011;36921;49.006;9.292;2023-02-25T05:17:12;9.00;;;1.02;;
50932;SDS011;36921;49.006;9.292;2023-02-25T05:19:39;6.10;;;0.95;;
50932;SDS011;36921;49.006;9.292;2023-02-25T05:22:05;2.80;;;0.80;;
50932;SDS011;36921;49.006;9.292;2023-02-25T05:24:31;2.85;;;0.70;;
50932;SDS011;36921;49.006;9.292;2023-02-25T05:27:02;4.70;;;0.90;;
50932;SDS011;36921;49.006;9.292;2023-02-25T05:29:36;2.13;;;0.80;;
50932;SDS011;36921;49.006;9.292;2023-02-25T05:32:04;6.35;;;1.00;;
50932;SDS011;36921;49.006;9.292;2023-02-25T05:34:30;10.18;;;0.82;;
50932;SDS011;36921;49.006;9.292;2023-02-25T05:36:56;2.30;;;0.98;;
50932;SDS011;36921;49.006;9.292;2023-02-25T05:39:21;1.88;;;0.90;;
50932;SDS011;36921;49.006;9.292;2023-02-25T05:41:47;3.28;;;0.95;;
50932;SDS011;36921;49.006;9.292;2023-02-25T05:44:28;5.90;;;1.05;;
50932;SDS011;36921;49.006;9.292;2023-02-25T05:47:21;4.45;;;0.88;;
50932;SDS011;36921;49.006;9.292;2023-02-25T05:49:46;4.60;;;0.98;;
50932;SDS011;36921;49.006;9.292;2023-02-25T05:52:12;3.00;;;0.68;;
50932;SDS011;36921;49.006;9.292;2023-02-25T05:57:59;2.42;;;0.57;;
50932;SDS011;36921;49.006;9.292;2023-02-25T06:00:25;3.53;;;0.80;;
50932;SDS011;36921;49.006;9.292;2023-02-25T06:02:50;2.97;;;0.80;;
50932;SDS011;36921;49.006;9.292;2023-02-25T06:05:15;3.35;;;0.90;;
50932;SDS011;36921;49.006;9.292;2023-02-25T06:07:42;2.65;;;0.75;;
50932;SDS011;36921;49.006;9.292;2023-02-25T06:10:07;10.25;;;0.93;;
50932;SDS011;36921;49.006;9.292;2023-02-25T06:12:33;5.07;;;1.05;;
50932;SDS011;36921;49.006;9.292;2023-02-25T06:15:00;5.90;;;1.05;;
50932;SDS011;36921;49.006;9.292;2023-02-25T06:17:26;4.60;;;0.80;;
50932;SDS011;36921;49.006;9.292;2023-02-25T06:19:51;5.43;;;0.82;;
50932;SDS011;36921;49.006;9.292;2023-02-25T06:22:22;3.95;;;0.73;;
50932;SDS011;36921;49.006;9.292;2023-02-25T06:24:48;6.63;;;1.38;;
50932;SDS011;36921;49.006;9.292;2023-02-25T06:27:13;5.03;;;0.65;;
50932;SDS011;36921;49.006;9.292;2023-02-25T06:29:40;4.82;;;1.00;;
50932;SDS011;36921;49.006;9.292;2023-02-25T06:32:15;1.50;;;0.60;;
50932;SDS011;36921;49.006;9.292;2023-02-25T06:34:41;2.53;;;0.63;;
50932;SDS011;36921;49.006;9.292;2023-02-25T06:37:06;2.25;;;0.80;;
50932;SDS011;36921;49.006;9.292;2023-02-25T06:39:32;7.30;;;0.90;;
50932;SDS011;36921;49.006;9.292;2023-02-25T06:41:57;3.42;;;0.70;;
50932;SDS011;36921;49.006;9.292;2023-02-25T06:44:23;4.78;;;0.80;;
50932;SDS011;36921;49.006;9.292;2023-02-25T06:46:49;2.22;;;0.57;;
50932;SDS011;36921;49.006;9.292;2023-02-25T06:49:15;5.63;;;0.80;;
50932;SDS011;36921;49.006;9.292;2023-02-25T06:51:41;1.80;;;0.75;;
50932;SDS011;36921;49.006;9.292;2023-02-25T07:04:27;2.75;;;0.80;;
50932;SDS011;36921;49.006;9.292;2023-02-25T07:06:52;6.45;;;1.13;;
50932;SDS011;36921;49.006;9.292;2023-02-25T07:09:18;1.88;;;0.70;;
50932;SDS011;36921;49.006;9.292;2023-02-25T07:11:43;5.30;;;0.80;;
50932;SDS011;36921;49.006;9.292;2023-02-25T07:14:08;3.92;;;1.17;;
50932;SDS011;36921;49.006;9.292;2023-02-25T07:16:34;8.90;;;1.50;;
50932;SDS011;36921;49.006;9.292;2023-02-25T07:18:59;3.15;;;0.82;;
50932;SDS011;36921;49.006;9.292;2023-02-25T07:21:28;3.15;;;0.65;;
50932;SDS011;36921;49.006;9.292;2023-02-25T07:23:55;3.22;;;0.80;;
50932;SDS011;36921;49.006;9.292;2023-02-25T07:26:21;1.67;;;0.70;;
50932;SDS011;36921;49.006;9.292;2023-02-25T07:28:53;6.60;;;1.10;;
50932;SDS011;36921;49.006;9.292;2023-02-25T07:31:19;3.63;;;1.02;;
50932;SDS011;36921;49.006;9.292;2023-02-25T07:33:45;3.22;;;0.80;;
50932;SDS011;36921;49.006;9.292;2023-02-25T07:36:11;2.45;;;1.33;;
50932;SDS011;36921;49.006;9.292;2023-02-25T07:38:37;6.15;;;1.15;;
50932;SDS011;36921;49.006;9.292;2023-02-25T07:41:04;9.57;;;1.77;;
50932;SDS011;36921;49.006;9.292;2023-02-25T07:43:40;6.15;;;0.82;;
50932;SDS011;36921;49.006;9.292;2023-02-25T07:46:06;1.50;;;0.80;;
50932;SDS011;36921;49.006;9.292;2023-02-25T07:48:32;9.57;;;1.38;;
50932;SDS011;36921;49.006;9.292;2023-02-25T07:51:04;3.42;;;1.45;;
50932;SDS011;36921;49.006;9.292;2023-02-25T07:53:31;7.63;;;2.75;;
50932;SDS011;36921;49.006;9.292;2023-02-25T07:55:57;6.55;;;1.77;;
50932;SDS011;36921;49.006;9.292;2023-02-25T07:58:23;3.90;;;1.35;;
50932;SDS011;36921;49.006;9.292;2023-02-25T08:00:48;5.20;;;1.23;;
50932;SDS011;36921;49.006;9.292;2023-02-25T08:03:14;5.03;;;1.52;;
50932;SDS011;36921;49.006;9.292;2023-02-25T08:05:39;3.42;;;0.85;;
50932;SDS011;36921;49.006;9.292;2023-02-25T08:08:04;5.50;;;1.10;;
50932;SDS011;36921;49.006;9.292;2023-02-25T08:10:30;4.95;;;0.90;;
50932;SDS011;36921;49.006;9.292;2023-02-25T08:12:55;3.78;;;1.10;;
50932;SDS011;36921;49.006;9.292;2023-02-25T08:15:21;4.70;;;1.10;;
50932;SDS011;36921;49.006;9.292;2023-02-25T08:17:46;5.97;;;1.50;;
50932;SDS011;36921;49.006;9.292;2023-02-25T08:20:15;3.75;;;1.13;;
50932;SDS011;36921;49.006;9.292;2023-02-25T08:22:41;7.07;;;1.30;;
50932;SDS011;36921;49.006;9.292;2023-02-25T08:25:06;3.70;;;1.35;;
50932;SDS011;36921;49.006;9.292;2023-02-25T08:27:33;2.78;;;0.95;;
50932;SDS011;36921;49.006;9.292;2023-02-25T08:29:59;4.32;;;1.02;;
50932;SDS011;36921;49.006;9.292;2023-02-25T08:32:24;6.55;;;1.08;;
50932;SDS011;36921;49.006;9.292;2023-02-25T08:34:51;3.10;;;0.80;;
50932;SDS011;36921;49.006;9.292;2023-02-25T08:37:17;4.63;;;0.80;;
50932;SDS011;36921;49.006;9.292;2023-02-25T08:39:43;2.45;;;0.50;;
50932;SDS011;36921;49.006;9.292;2023-02-25T08:42:08;2.95;;;0.65;;
50932;SDS011;36921;49.006;9.292;2023-02-25T08:44:35;31.23;;;1.67;;
50932;SDS011;36921;49.006;9.292;2023-02-25T08:47:01;2.92;;;0.77;;
50932;SDS011;36921;49.006;9.292;2023-02-25T08:49:27;4.72;;;1.00;;
50932;SDS011;36921;49.006;9.292;2023-02-25T08:51:52;5.03;;;0.70;;
50932;SDS011;36921;49.006;9.292;2023-02-25T08:54:17;6.03;;;0.95;;
50932;SDS011;36921;49.006;9.292;2023-02-25T08:56:43;4.55;;;1.70;;
50932;SDS011;36921;49.006;9.292;2023-02-25T08:59:09;2.88;;;0.70;;
50932;SDS011;36921;49.006;9.292;2023-02-25T09:01:38;2.70;;;0.68;;
50932;SDS011;36921;49.006;9.292;2023-02-25T09:04:10;3.65;;;0.85;;
50932;SDS011;36921;49.006;9.292;2023-02-25T09:06:46;2.55;;;0.65;;
50932;SDS011;36921;49.006;9.292;2023-02-25T09:09:13;1.98;;;0.57;;
50932;SDS011;36921;49.006;9.292;2023-02-25T09:11:39;2.58;;;0.65;;
50932;SDS011;36921;49.006;9.292;2023-02-25T09:14:05;3.45;;;0.73;;
50932;SDS011;36921;49.006;9.292;2023-02-25T09:16:31;2.55;;;0.47;;
50932;SDS011;36921;49.006;9.292;2023-02-25T09:18:57;3.33;;;0.60;;
50932;SDS011;36921;49.006;9.292;2023-02-25T09:21:23;4.07;;;0.73;;
50932;SDS011;36921;49.006;9.292;2023-02-25T09:23:48;7.05;;;0.75;;
50932;SDS011;36921;49.006;9.292;2023-02-25T09:26:16;2.75;;;0.82;;
50932;SDS011;36921;49.006;9.292;2023-02-25T09:28:43;3.60;;;0.70;;
50932;SDS011;36921;49.006;9.292;2023-02-25T09:31:08;1.90;;;0.70;;
50932;SDS011;36921;49.006;9.292;2023-02-25T09:33:34;4.85;;;0.82;;
50932;SDS011;36921;49.006;9.292;2023-02-25T09:36:08;6.15;;;1.08;;
50932;SDS011;36921;49.006;9.292;2023-02-25T09:38:36;3.35;;;0.55;;
50932;SDS011;36921;49.006;9.292;2023-02-25T09:41:03;5.05;;;0.95;;
50932;SDS011;36921;49.006;9.292;2023-02-25T09:43:51;1.10;;;0.60;;
50932;SDS011;36921;49.006;9.292;2023-02-25T09:46:29;2.55;;;0.73;;
50932;SDS011;36921;49.006;9.292;2023-02-25T09:49:01;3.35;;;0.50;;
50932;SDS011;36921;49.006;9.292;2023-02-25T09:51:34;3.03;;;0.70;;
50932;SDS011;36921;49.006;9.292;2023-02-25T09:54:17;6.50;;;0.70;;
50932;SDS011;36921;49.006;9.292;2023-02-25T09:56:48;4.20;;;0.65;;
50932;SDS011;36921;49.006;9.292;2023-02-25T09:59:15;2.25;;;0.50;;
50932;SDS011;36921;49.006;9.292;2023-02-25T10:01:54;4.32;;;0.75;;
50932;SDS011;36921;49.006;9.292;2023-02-25T10:04:31;2.22;;;0.43;;
50932;SDS011;36921;49.006;9.292;2023-02-25T10:07:08;1.58;;;0.50;;
50932;SDS011;36921;49.006;9.292;2023-02-25T10:09:46;3.10;;;0.60;;
50932;SDS011;36921;49.006;9.292;2023-02-25T10:12:27;1.20;;;0.70;;
50932;SDS011;36921;49.006;9.292;2023-02-25T10:15:23;3.03;;;0.50;;
50932;SDS011;36921;49.006;9.292;2023-02-25T10:18:17;3.00;;;0.93;;
50932;SDS011;36921;49.006;9.292;2023-02-25T10:27:01;3.65;;;0.47;;
50932;SDS011;36921;49.006;9.292;2023-02-25T10:29:44;4.32;;;0.80;;
50932;SDS011;36921;49.006;9.292;2023-02-25T10:32:14;3.97;;;0.55;;
50932;SDS011;36921;49.006;9.292;2023-02-25T10:34:49;2.55;;;0.60;;
50932;SDS011;36921;49.006;9.292;2023-02-25T10:37:50;3.22;;;0.70;;
50932;SDS011;36921;49.006;9.292;2023-02-25T10:40:16;2.55;;;0.55;;
50932;SDS011;36921;49.006;9.292;2023-02-25T10:42:45;2.65;;;0.50;;
50932;SDS011;36921;49.006;9.292;2023-02-25T10:45:16;2.17;;;0.50;;
50932;SDS011;36921;49.006;9.292;2023-02-25T10:47:46;2.10;;;0.73;;
50932;SDS011;36921;49.006;9.292;2023-02-25T10:50:22;4.18;;;0.60;;
50932;SDS011;36921;49.006;9.292;2023-02-25T10:58:02;3.75;;;0.80;;
50932;SDS011;36921;49.006;9.292;2023-02-25T11:00:30;7.25;;;1.13;;
50932;SDS011;36921;49.006;9.292;2023-02-25T11:02:58;4.35;;;0.73;;
50932;SDS011;36921;49.006;9.292;2023-02-25T11:13:28;4.30;;;0.90;;
50932;SDS011;36921;49.006;9.292;2023-02-25T11:15:54;6.60;;;1.15;;
50932;SDS011;36921;49.006;9.292;2023-02-25T11:18:26;4.53;;;1.02;;
50932;SDS011;36921;49.006;9.292;2023-02-25T11:20:55;3.72;;;1.10;;
50932;SDS011;36921;49.006;9.292;2023-02-25T11:26:06;2.22;;;1.05;;
50932;SDS011;36921;49.006;9.292;2023-02-25T11:28:33;2.75;;;0.90;;
50932;SDS011;36921;49.006;9.292;2023-02-25T11:31:08;2.58;;;0.90;;
50932;SDS011;36921;49.006;9.292;2023-02-25T11:33:44;4.30;;;0.93;;
50932;SDS011;36921;49.006;9.292;2023-02-25T11:36:19;3.05;;;0.75;;
50932;SDS011;36921;49.006;9.292;2023-02-25T11:38:47;7.35;;;0.90;;
50932;SDS011;36921;49.006;9.292;2023-02-25T11:41:20;3.65;;;0.75;;
50932;SDS011;36921;49.006;9.292;2023-02-25T11:43:46;2.58;;;0.90;;
50932;SDS011;36921;49.006;9.292;2023-02-25T11:49:56;2.83;;;0.77;;
50932;SDS011;36921;49.006;9.292;2023-02-25T11:52:10;6.30;;;0.85;;
50932;SDS011;36921;49.006;9.292;2023-02-25T11:57:11;2.33;;;1.02;;
50932;SDS011;36921;49.006;9.292;2023-02-25T12:06:05;3.03;;;0.98;;
50932;SDS011;36921;49.006;9.292;2023-02-25T12:20:29;7.68;;;0.90;;
50932;SDS011;36921;49.006;9.292;2023-02-25T12:31:34;3.22;;;0.70;;
50932;SDS011;36921;49.006;9.292;2023-02-25T12:37:21;5.40;;;1.40;;
50932;SDS011;36921;49.006;9.292;2023-02-25T12:40:01;4.72;;;0.90;;
50932;SDS011;36921;49.006;9.292;2023-02-25T12:43:32;0.75;;;0.43;;
50932;SDS011;36921;49.006;9.292;2023-02-25T12:46:03;2.90;;;0.82;;
50932;SDS011;36921;49.006;9.292;2023-02-25T12:53:57;6.05;;;1.27;;
50932;SDS011;36921;49.006;9.292;2023-02-25T13:05:19;3.55;;;0.70;;
50932;SDS011;36921;49.006;9.292;2023-02-25T13:08:05;1.88;;;0.80;;
50932;SDS011;36921;49.006;9.292;2023-02-25T13:14:02;3.78;;;0.90;;
50932;SDS011;36921;49.006;9.292;2023-02-25T13:16:55;4.07;;;1.00;;
50932;SDS011;36921;49.006;9.292;2023-02-25T13:28:04;1.70;;;0.80;;
50932;SDS011;36921;49.006;9.292;2023-02-25T13:46:48;4.00;;;0.90;;
50932;SDS011;36921;49.006;9.292;2023-02-25T14:09:36;5.85;;;1.23;;
50932;SDS011;36921;49.006;9.292;2023-02-25T14:17:33;1.70;;;0.80;;
50932;SDS011;36921;49.006;9.292;2023-02-25T14:26:25;6.95;;;1.00;;
50932;SDS011;36921;49.006;9.292;2023-02-25T14:34:40;7.07;;;0.70;;
50932;SDS011;36921;49.006;9.292;2023-02-25T14:43:28;8.30;;;0.90;;
50932;SDS011;36921;49.006;9.292;2023-02-25T14:46:10;7.53;;;1.10;;
50932;SDS011;36921;49.006;9.292;2023-02-25T14:48:46;4.93;;;0.90;;
50932;SDS011;36921;49.006;9.292;2023-02-25T14:57:09;4.18;;;0.85;;
50932;SDS011;36921;49.006;9.292;2023-02-25T15:16:17;6.13;;;0.88;;
50932;SDS011;36921;49.006;9.292;2023-02-25T15:18:58;6.25;;;1.20;;
50932;SDS011;36921;49.006;9.292;2023-02-25T15:21:44;2.72;;;0.98;;
50932;SDS011;36921;49.006;9.292;2023-02-25T15:26:47;1.35;;;0.80;;
50932;SDS011;36921;49.006;9.292;2023-02-25T15:32:07;4.95;;;1.13;;
50932;SDS011;36921;49.006;9.292;2023-02-25T15:38:04;3.47;;;1.13;;
50932;SDS011;36921;49.006;9.292;2023-02-25T15:40:51;1.88;;;0.95;;
50932;SDS011;36921;49.006;9.292;2023-02-25T15:45:51;3.75;;;1.10;;
50932;SDS011;36921;49.006;9.292;2023-02-25T15:55:46;2.38;;;1.02;;
50932;SDS011;36921;49.006;9.292;2023-02-25T16:03:26;6.47;;;1.27;;
50932;SDS011;36921;49.006;9.292;2023-02-25T16:05:51;3.45;;;1.10;;
50932;SDS011;36921;49.006;9.292;2023-02-25T16:08:22;6.78;;;0.93;;
50932;SDS011;36921;49.006;9.292;2023-02-25T16:10:51;3.65;;;1.17;;
50932;SDS011;36921;49.006;9.292;2023-02-25T16:13:21;8.02;;;1.38;;
50932;SDS011;36921;49.006;9.292;2023-02-25T16:15:54;2.00;;;0.90;;
50932;SDS011;36921;49.006;9.292;2023-02-25T16:23:30;2.17;;;1.00;;
50932;SDS011;36921;49.006;9.292;2023-02-25T16:29:12;4.13;;;1.23;;
50932;SDS011;36921;49.006;9.292;2023-02-25T16:31:55;4.65;;;1.30;;
50932;SDS011;36921;49.006;9.292;2023-02-25T16:37:30;8.10;;;1.67;;
50932;SDS011;36921;49.006;9.292;2023-02-25T16:40:01;4.30;;;1.25;;
50932;SDS011;36921;49.006;9.292;2023-02-25T16:42:28;3.95;;;1.40;;
50932;SDS011;36921;49.006;9.292;2023-02-25T16:45:00;3.80;;;1.60;;
50932;SDS011;36921;49.006;9.292;2023-02-25T16:47:29;4.35;;;1.52;;
50932;SDS011;36921;49.006;9.292;2023-02-25T16:49:59;4.70;;;1.60;;
50932;SDS011;36921;49.006;9.292;2023-02-25T16:52:31;4.60;;;1.60;;
50932;SDS011;36921;49.006;9.292;2023-02-25T16:55:02;4.50;;;1.50;;
50932;SDS011;36921;49.006;9.292;2023-02-25T16:57:32;6.28;;;1.60;;
50932;SDS011;36921;49.006;9.292;2023-02-25T17:00:33;12.10;;;4.90;;
50932;SDS011;36921;49.006;9.292;2023-02-25T17:02:57;3.15;;;1.65;;
50932;SDS011;36921;49.006;9.292;2023-02-25T17:05:31;1.77;;;0.70;;
50932;SDS011;36921;49.006;9.292;2023-02-25T17:07:59;1.40;;;0.60;;
50932;SDS011;36921;49.006;9.292;2023-02-25T17:10:28;1.40;;;0.60;;
50932;SDS011;36921;49.006;9.292;2023-02-25T17:12:59;1.73;;;0.90;;
50932;SDS011;36921;49.006;9.292;2023-02-25T17:15:30;2.35;;;0.70;;
50932;SDS011;36921;49.006;9.292;2023-02-25T17:18:05;1.30;;;0.85;;
50932;SDS011;36921;49.006;9.292;2023-02-25T17:20:31;3.85;;;1.40;;
50932;SDS011;36921;49.006;9.292;2023-02-25T17:22:57;3.92;;;1.80;;
50932;SDS011;36921;49.006;9.292;2023-02-25T17:25:28;5.72;;;1.98;;
50932;SDS011;36921;49.006;9.292;2023-02-25T17:28:01;13.18;;;5.10;;
50932;SDS011;36921;49.006;9.292;2023-02-25T17:30:35;15.60;;;6.88;;
50932;SDS011;36921;49.006;9.292;2023-02-25T17:33:01;16.52;;;5.05;;
50932;SDS011;36921;49.006;9.292;2023-02-25T17:35:27;5.82;;;3.20;;
50932;SDS011;36921;49.006;9.292;2023-02-25T17:37:54;5.10;;;2.60;;
50932;SDS011;36921;49.006;9.292;2023-02-25T17:40:23;4.38;;;2.55;;
50932;SDS011;36921;49.006;9.292;2023-02-25T17:43:13;6.55;;;4.47;;
50932;SDS011;36921;49.006;9.292;2023-02-25T17:45:39;6.18;;;2.90;;
50932;SDS011;36921;49.006;9.292;2023-02-25T17:48:23;5.53;;;2.60;;
50932;SDS011;36921;49.006;9.292;2023-02-25T17:50:51;4.55;;;2.10;;
50932;SDS011;36921;49.006;9.292;2023-02-25T17:56:27;3.47;;;1.60;;
50932;SDS011;36921;49.006;9.292;2023-02-25T17:58:59;9.27;;;2.17;;
50932;SDS011;36921;49.006;9.292;2023-02-25T18:01:30;5.55;;;1.98;;
50932;SDS011;36921;49.006;9.292;2023-02-25T18:04:25;5.60;;;1.50;;
50932;SDS011;36921;49.006;9.292;2023-02-25T18:06:58;2.63;;;1.15;;
50932;SDS011;36921;49.006;9.292;2023-02-25T18:09:44;2.67;;;1.40;;
50932;SDS011;36921;49.006;9.292;2023-02-25T18:12:31;4.30;;;1.67;;
50932;SDS011;36921;49.006;9.292;2023-02-25T18:14:59;3.75;;;1.83;;
50932;SDS011;36921;49.006;9.292;2023-02-25T18:17:32;6.18;;;2.92;;
50932;SDS011;36921;49.006;9.292;2023-02-25T18:20:02;6.40;;;3.00;;
50932;SDS011;36921;49.006;9.292;2023-02-25T18:22:35;7.35;;;4.15;;
50932;SDS011;36921;49.006;9.292;2023-02-25T18:27:54;6.75;;;3.05;;
50932;SDS011;36921;49.006;9.292;2023-02-25T18:30:21;9.45;;;3.17;;
50932;SDS011;36921;49.006;9.292;2023-02-25T18:32:48;9.98;;;3.65;;
50932;SDS011;36921;49.006;9.292;2023-02-25T18:35:14;5.93;;;3.33;;
50932;SDS011;36921;49.006;9.292;2023-02-25T18:37:41;7.65;;;4.20;;
50932;SDS011;36921;49.006;9.292;2023-02-25T18:40:21;8.77;;;4.45;;
50932;SDS011;36921;49.006;9.292;2023-02-25T18:42:50;8.48;;;5.10;;
50932;SDS011;36921;49.006;9.292;2023-02-25T18:45:16;8.05;;;4.75;;
50932;SDS011;36921;49.006;9.292;2023-02-25T18:47:44;11.98;;;5.30;;
50932;SDS011;36921;49.006;9.292;2023-02-25T18:50:10;11.15;;;4.10;;
50932;SDS011;36921;49.006;9.292;2023-02-25T18:52:36;18.55;;;4.70;;
50932;SDS011;36921;49.006;9.292;2023-02-25T18:55:02;13.80;;;6.85;;
50932;SDS011;36921;49.006;9.292;2023-02-25T18:57:28;14.48;;;5.15;;
50932;SDS011;36921;49.006;9.292;2023-02-25T18:59:53;14.48;;;5.25;;